Time;durP1;ratioP1;P1;durP2;ratioP2;P2;SDS_P1;SDS_P2;PMS_P1;PMS_P2;Temp;Humidity;BMP_temperature;BMP_pressure;BME280_temperature;BME280_humidity;BME280_pressure;Samples;Min_cycle;Max_cycle;Signal;HPM_P1;HPM_P2
2021/06/26 00:00:15;;;;;;;35.33;28.15;;;;;;;;;;5031153;28;20026;-64
2021/06/26 00:02:41;;;;;;;35.88;28.63;;;;;;;;;;5031305;28;20485;-64
2021/06/26 00:05:08;;;;;;;37.78;30.00;;;;;;;;;;5030883;28;20075;-64
2021/06/26 00:07:34;;;;;;;37.38;28.52;;;;;;;;;;5032478;28;20022;-64
2021/06/26 00:10:00;;;;;;;35.30;28.90;;;;;;;;;;5032604;28;20466;-64
2021/06/26 00:12:26;;;;;;;35.53;27.73;;;;;;;;;;5032743;28;20478;-64
2021/06/26 00:14:53;;;;;;;39.45;29.38;;;;;;;;;;5030881;28;20038;-63
2021/06/26 00:17:19;;;;;;;34.92;29.48;;;;;;;;;;5030622;28;20051;-64
2021/06/26 00:19:45;;;;;;;34.55;27.88;;;;;;;;;;5032244;28;20033;-64
2021/06/26 00:22:11;;;;;;;36.55;29.05;;;;;;;;;;5032352;28;20032;-64
2021/06/26 00:24:37;;;;;;;35.45;29.08;;;;;;;;;;5030646;28;20099;-64
2021/06/26 00:27:03;;;;;;;36.58;29.10;;;;;;;;;;5031861;28;20037;-65
2021/06/26 00:29:29;;;;;;;39.53;30.25;;;;;;;;;;5031960;28;20029;-64
2021/06/26 00:31:55;;;;;;;37.35;30.33;;;;;;;;;;5030872;28;20022;-64
2021/06/26 00:34:21;;;;;;;35.83;30.17;;;;;;;;;;5030341;28;20482;-64
2021/06/26 00:36:47;;;;;;;33.63;28.50;;;;;;;;;;5063360;22;20045;-67
2021/06/26 00:39:13;;;;;;;35.45;29.42;;;;;;;;;;5055767;28;20393;-68
2021/06/26 00:41:39;;;;;;;36.22;29.10;;;;;;;;;;5056019;28;20032;-68
2021/06/26 00:44:09;;;;;;;36.08;27.73;;;;;;;;;;5037977;28;20033;-68
2021/06/26 00:46:35;;;;;;;37.38;29.63;;;;;;;;;;5037871;28;20110;-69
2021/06/26 00:49:02;;;;;;;38.60;29.20;;;;;;;;;;5037987;28;20025;-69
2021/06/26 00:51:27;;;;;;;39.05;29.75;;;;;;;;;;5037184;28;20066;-67
2021/06/26 00:53:54;;;;;;;36.17;28.35;;;;;;;;;;5055680;28;20027;-66
2021/06/26 00:56:20;;;;;;;40.75;29.10;;;;;;;;;;5037180;28;20025;-68
2021/06/26 00:58:47;;;;;;;35.58;29.35;;;;;;;;;;5055714;28;20480;-67
2021/06/26 01:01:13;;;;;;;37.08;29.20;;;;;;;;;;5055343;28;20025;-67
2021/06/26 01:03:39;;;;;;;34.08;27.95;;;;;;;;;;5055577;28;20461;-68
2021/06/26 01:06:05;;;;;;;34.63;29.80;;;;;;;;;;5037365;28;20040;-68
2021/06/26 01:08:31;;;;;;;34.45;28.85;;;;;;;;;;5055673;28;20028;-68
2021/06/26 01:10:58;;;;;;;32.65;27.30;;;;;;;;;;5037450;28;20020;-68
2021/06/26 01:13:24;;;;;;;35.47;28.50;;;;;;;;;;5055369;28;20025;-68
2021/06/26 01:15:51;;;;;;;33.72;26.52;;;;;;;;;;5055098;28;20427;-69
2021/06/26 01:18:17;;;;;;;40.50;28.38;;;;;;;;;;5037603;28;20385;-69
2021/06/26 01:20:43;;;;;;;33.65;28.23;;;;;;;;;;5037397;28;20029;-68
2021/06/26 01:23:12;;;;;;;36.42;27.88;;;;;;;;;;5055178;28;20020;-68
2021/06/26 01:25:39;;;;;;;33.13;27.73;;;;;;;;;;5055297;28;20036;-68
2021/06/26 01:28:05;;;;;;;35.42;28.60;;;;;;;;;;5037452;28;20120;-68
2021/06/26 01:30:32;;;;;;;35.47;28.10;;;;;;;;;;5055029;28;20076;-68
2021/06/26 01:32:59;;;;;;;35.65;29.23;;;;;;;;;;5055225;28;20025;-68
2021/06/26 01:35:25;;;;;;;35.13;29.02;;;;;;;;;;5036564;28;20071;-68
2021/06/26 01:37:51;;;;;;;41.22;28.02;;;;;;;;;;5036876;28;20029;-67
2021/06/26 01:40:22;;;;;;;34.92;26.85;;;;;;;;;;5054783;28;20056;-67
2021/06/26 01:42:49;;;;;;;36.60;28.42;;;;;;;;;;5037036;28;20025;-67
2021/06/26 01:45:16;;;;;;;35.15;27.15;;;;;;;;;;5054497;28;20029;-68
2021/06/26 01:48:00;;;;;;;34.25;27.80;;;;;;;;;;5036121;28;20079;-69
2021/06/26 01:50:27;;;;;;;34.90;28.42;;;;;;;;;;5054832;28;20100;-68
2021/06/26 01:52:53;;;;;;;35.88;28.92;;;;;;;;;;5036872;28;20500;-67
2021/06/26 01:55:20;;;;;;;35.88;28.45;;;;;;;;;;5054273;28;20101;-68
2021/06/26 01:57:47;;;;;;;36.83;30.52;;;;;;;;;;5036640;28;20025;-68
2021/06/26 02:00:13;;;;;;;38.75;29.27;;;;;;;;;;5036625;28;20029;-67
2021/06/26 02:02:39;;;;;;;36.00;30.15;;;;;;;;;;5036495;28;20021;-68
2021/06/26 02:05:06;;;;;;;37.72;30.08;;;;;;;;;;5036342;28;20033;-68
2021/06/26 02:07:32;;;;;;;37.72;31.50;;;;;;;;;;5036599;28;20017;-65
2021/06/26 02:09:58;;;;;;;38.95;30.92;;;;;;;;;;5036480;28;20576;-68
2021/06/26 02:12:24;;;;;;;37.67;29.95;;;;;;;;;;5036374;28;20374;-67
2021/06/26 02:14:52;;;;;;;42.60;31.33;;;;;;;;;;5036178;28;20036;-68
2021/06/26 02:17:19;;;;;;;40.75;31.73;;;;;;;;;;5054175;28;20558;-68
2021/06/26 02:19:45;;;;;;;41.42;31.65;;;;;;;;;;5054317;28;20029;-67
2021/06/26 02:22:11;;;;;;;37.33;30.08;;;;;;;;;;5036192;28;20033;-68
2021/06/26 02:24:37;;;;;;;41.60;32.50;;;;;;;;;;5035784;28;20025;-67
2021/06/26 02:27:03;;;;;;;40.55;32.10;;;;;;;;;;5054017;28;20017;-67
2021/06/26 02:29:30;;;;;;;38.15;30.98;;;;;;;;;;5053847;28;20074;-68
2021/06/26 02:31:56;;;;;;;39.53;30.55;;;;;;;;;;5053986;28;20045;-66
2021/06/26 02:34:22;;;;;;;37.97;31.08;;;;;;;;;;5053804;28;20451;-67
2021/06/26 02:36:48;;;;;;;42.42;33.33;;;;;;;;;;5035799;28;20116;-69
2021/06/26 02:39:14;;;;;;;41.30;31.83;;;;;;;;;;5053683;28;20053;-68
2021/06/26 02:41:40;;;;;;;40.47;32.15;;;;;;;;;;5053731;28;20477;-67
2021/06/26 02:44:07;;;;;;;37.85;31.13;;;;;;;;;;5035545;28;20170;-67
2021/06/26 02:46:33;;;;;;;38.10;30.77;;;;;;;;;;5035634;28;20070;-67
2021/06/26 02:48:59;;;;;;;39.95;31.90;;;;;;;;;;5035777;28;20021;-68
2021/06/26 02:51:25;;;;;;;38.85;31.40;;;;;;;;;;5053584;28;20088;-68
2021/06/26 02:53:51;;;;;;;40.22;31.38;;;;;;;;;;5035575;28;20048;-67
2021/06/26 02:56:17;;;;;;;42.30;32.65;;;;;;;;;;5053286;28;20071;-67
2021/06/26 02:58:43;;;;;;;40.33;32.33;;;;;;;;;;5053497;28;20083;-67
2021/06/26 03:01:09;;;;;;;38.78;31.40;;;;;;;;;;5052472;28;20029;-67
2021/06/26 03:03:35;;;;;;;40.42;31.55;;;;;;;;;;5035453;28;20079;-67
2021/06/26 03:06:01;;;;;;;40.97;33.60;;;;;;;;;;5053030;28;20090;-67
2021/06/26 03:08:27;;;;;;;44.20;33.15;;;;;;;;;;5053368;28;20480;-68
2021/06/26 03:10:53;;;;;;;42.10;35.05;;;;;;;;;;5035455;28;20169;-67
2021/06/26 03:13:19;;;;;;;41.90;33.72;;;;;;;;;;5035442;28;20025;-67
2021/06/26 03:15:46;;;;;;;42.38;32.08;;;;;;;;;;5035205;28;20142;-67
2021/06/26 03:18:12;;;;;;;41.70;34.95;;;;;;;;;;5035216;28;20029;-68
2021/06/26 03:20:38;;;;;;;43.03;33.20;;;;;;;;;;5035209;28;20481;-68
2021/06/26 03:23:05;;;;;;;42.95;31.85;;;;;;;;;;5035096;28;20064;-68
2021/06/26 03:25:31;;;;;;;43.30;34.10;;;;;;;;;;5052624;28;20032;-68
2021/06/26 03:27:57;;;;;;;39.35;33.42;;;;;;;;;;5052667;28;20024;-67
2021/06/26 03:30:23;;;;;;;40.25;32.33;;;;;;;;;;5034934;28;20021;-68
2021/06/26 03:32:49;;;;;;;42.75;33.47;;;;;;;;;;5034719;28;20025;-67
2021/06/26 03:35:15;;;;;;;45.22;33.20;;;;;;;;;;5034613;28;20119;-67
2021/06/26 03:37:41;;;;;;;41.88;32.67;;;;;;;;;;5052502;28;20039;-67
2021/06/26 03:40:08;;;;;;;42.28;34.38;;;;;;;;;;5052508;28;20028;-68
2021/06/26 03:42:34;;;;;;;42.88;34.33;;;;;;;;;;5052544;28;20021;-67
2021/06/26 03:45:00;;;;;;;41.00;33.25;;;;;;;;;;5052309;28;20114;-69
2021/06/26 03:47:27;;;;;;;41.42;31.75;;;;;;;;;;5052471;28;20067;-68
2021/06/26 03:49:53;;;;;;;38.33;32.13;;;;;;;;;;5034554;28;20084;-67
2021/06/26 03:52:19;;;;;;;42.08;31.92;;;;;;;;;;5034643;28;20664;-68
2021/06/26 03:54:45;;;;;;;40.80;34.25;;;;;;;;;;5034281;28;20083;-67
2021/06/26 03:57:11;;;;;;;39.13;32.67;;;;;;;;;;5052261;28;20455;-67
2021/06/26 03:59:38;;;;;;;47.17;34.53;;;;;;;;;;5034753;28;20029;-67
2021/06/26 04:02:07;;;;;;;40.75;33.10;;;;;;;;;;5034361;28;20035;-67
2021/06/26 04:04:34;;;;;;;46.15;34.50;;;;;;;;;;5051843;28;20477;-66
2021/06/26 04:07:00;;;;;;;45.20;35.45;;;;;;;;;;5052110;28;20457;-67
2021/06/26 04:09:26;;;;;;;41.35;34.10;;;;;;;;;;5034431;28;20028;-67
2021/06/26 04:11:52;;;;;;;43.22;32.55;;;;;;;;;;5034005;28;20025;-67
2021/06/26 04:14:18;;;;;;;41.47;32.78;;;;;;;;;;5034105;28;20032;-68
2021/06/26 04:16:44;;;;;;;41.67;32.60;;;;;;;;;;5051882;28;20453;-67
2021/06/26 04:19:10;;;;;;;42.47;35.30;;;;;;;;;;5034138;28;20147;-66
2021/06/26 04:21:36;;;;;;;42.92;33.10;;;;;;;;;;5034302;28;20421;-67
2021/06/26 04:24:02;;;;;;;42.40;34.03;;;;;;;;;;5051789;28;20039;-65
2021/06/26 04:26:28;;;;;;;41.90;33.45;;;;;;;;;;5051866;28;20017;-66
2021/06/26 04:28:54;;;;;;;43.75;34.75;;;;;;;;;;5052198;28;20374;-67
2021/06/26 04:31:20;;;;;;;40.95;34.75;;;;;;;;;;5051343;28;20035;-68
2021/06/26 04:33:46;;;;;;;41.33;33.00;;;;;;;;;;5033245;28;20102;-67
2021/06/26 04:36:14;;;;;;;41.92;33.60;;;;;;;;;;5033608;28;20048;-68
2021/06/26 04:38:40;;;;;;;41.75;33.92;;;;;;;;;;5033665;28;20369;-68
2021/06/26 04:41:06;;;;;;;44.42;36.35;;;;;;;;;;5051822;28;20051;-68
2021/06/26 04:43:32;;;;;;;47.00;35.45;;;;;;;;;;5051921;28;20532;-67
2021/06/26 04:45:58;;;;;;;43.67;34.95;;;;;;;;;;5033723;28;20025;-68
2021/06/26 04:48:27;;;;;;;44.88;34.67;;;;;;;;;;5051510;28;20036;-68
2021/06/26 04:50:54;;;;;;;46.10;34.03;;;;;;;;;;5051510;28;20013;-68
2021/06/26 04:53:19;;;;;;;40.78;33.53;;;;;;;;;;5051716;28;20076;-67
2021/06/26 04:55:51;;;;;;;43.17;34.35;;;;;;;;;;5051423;28;20053;-66
2021/06/26 04:58:18;;;;;;;42.83;35.05;;;;;;;;;;5051648;28;20469;-66
2021/06/26 05:00:44;;;;;;;43.58;35.90;;;;;;;;;;5051978;28;20047;-67
2021/06/26 05:03:10;;;;;;;49.25;39.03;;;;;;;;;;5051947;28;20078;-67
2021/06/26 05:05:36;;;;;;;46.67;36.63;;;;;;;;;;5051600;28;20108;-66
2021/06/26 05:08:02;;;;;;;45.75;37.83;;;;;;;;;;5033889;28;20017;-65
2021/06/26 05:10:28;;;;;;;46.55;37.63;;;;;;;;;;5033879;28;20397;-67
2021/06/26 05:12:54;;;;;;;47.72;37.40;;;;;;;;;;5034202;28;20120;-67
2021/06/26 05:15:20;;;;;;;43.95;37.65;;;;;;;;;;5051254;28;20037;-67
2021/06/26 05:17:46;;;;;;;50.90;41.85;;;;;;;;;;5051204;28;20104;-68
2021/06/26 05:20:16;;;;;;;44.33;37.17;;;;;;;;;;5051304;28;20071;-67
2021/06/26 05:22:43;;;;;;;43.58;36.35;;;;;;;;;;5051426;28;20025;-67
2021/06/26 05:25:09;;;;;;;42.10;35.30;;;;;;;;;;5054763;28;20070;-66
2021/06/26 05:27:35;;;;;;;45.17;36.53;;;;;;;;;;5054996;28;20021;-68
2021/06/26 05:30:01;;;;;;;45.28;37.83;;;;;;;;;;5055134;28;20031;-67
2021/06/26 05:32:27;;;;;;;43.15;35.70;;;;;;;;;;5055095;28;20029;-67
2021/06/26 05:34:53;;;;;;;46.13;37.85;;;;;;;;;;5036640;28;20048;-68
2021/06/26 05:37:19;;;;;;;43.13;36.65;;;;;;;;;;5054592;28;20029;-67
2021/06/26 05:39:45;;;;;;;43.28;36.47;;;;;;;;;;5036876;28;20393;-68
2021/06/26 05:42:11;;;;;;;43.65;37.53;;;;;;;;;;5054826;28;20393;-67
2021/06/26 05:44:37;;;;;;;42.67;37.30;;;;;;;;;;5054134;28;20031;-68
2021/06/26 05:47:03;;;;;;;44.50;36.70;;;;;;;;;;5054498;28;20393;-68
2021/06/26 05:49:29;;;;;;;45.80;37.33;;;;;;;;;;5054153;28;20045;-67
2021/06/26 05:51:55;;;;;;;46.42;38.95;;;;;;;;;;5054469;28;20095;-67
2021/06/26 05:54:22;;;;;;;44.53;36.90;;;;;;;;;;5036667;28;20029;-67
2021/06/26 05:56:48;;;;;;;47.65;36.67;;;;;;;;;;5054631;28;20025;-67
2021/06/26 05:59:14;;;;;;;46.03;37.45;;;;;;;;;;5054839;28;20025;-68
2021/06/26 06:01:40;;;;;;;42.90;37.40;;;;;;;;;;5036705;28;20025;-67
2021/06/26 06:04:09;;;;;;;46.33;38.20;;;;;;;;;;5054252;28;20108;-67
2021/06/26 06:06:36;;;;;;;42.90;37.00;;;;;;;;;;5054290;28;20389;-67
2021/06/26 06:09:03;;;;;;;46.92;37.72;;;;;;;;;;5054348;28;20420;-68
2021/06/26 06:11:29;;;;;;;44.92;38.40;;;;;;;;;;5054371;28;20094;-67
2021/06/26 06:13:55;;;;;;;46.55;38.50;;;;;;;;;;5036275;28;20075;-68
2021/06/26 06:16:22;;;;;;;45.17;37.30;;;;;;;;;;5054106;28;20128;-66
2021/06/26 06:18:51;;;;;;;46.10;39.13;;;;;;;;;;5036291;28;20474;-67
2021/06/26 06:21:17;;;;;;;46.33;35.55;;;;;;;;;;5054237;28;20051;-67
2021/06/26 06:23:43;;;;;;;40.70;36.08;;;;;;;;;;5051812;28;20029;-67
2021/06/26 06:26:09;;;;;;;49.88;37.45;;;;;;;;;;5053403;28;20017;-66
2021/06/26 06:28:35;;;;;;;41.85;35.85;;;;;;;;;;5053705;28;20017;-65
2021/06/26 06:31:01;;;;;;;40.72;35.83;;;;;;;;;;5053760;28;20033;-67
2021/06/26 06:33:27;;;;;;;45.95;37.10;;;;;;;;;;5035639;28;20481;-66
2021/06/26 06:35:53;;;;;;;42.05;35.85;;;;;;;;;;5053183;28;20461;-66
2021/06/26 06:38:19;;;;;;;45.33;37.10;;;;;;;;;;5058152;22;20052;-63
2021/06/26 06:40:45;;;;;;;40.63;35.53;;;;;;;;;;5035409;28;20025;-63
2021/06/26 06:43:11;;;;;;;40.40;34.90;;;;;;;;;;5035445;28;20028;-63
2021/06/26 06:45:37;;;;;;;42.20;35.80;;;;;;;;;;5035028;28;20078;-63
2021/06/26 06:48:04;;;;;;;36.72;32.75;;;;;;;;;;5052712;28;20423;-64
2021/06/26 06:50:30;;;;;;;42.35;33.88;;;;;;;;;;5052962;28;20029;-64
2021/06/26 06:52:59;;;;;;;39.10;33.67;;;;;;;;;;5052745;28;20032;-64
2021/06/26 06:55:25;;;;;;;39.50;35.30;;;;;;;;;;5052379;28;20074;-64
2021/06/26 06:57:51;;;;;;;41.33;33.08;;;;;;;;;;5052680;28;20468;-64
2021/06/26 07:00:17;;;;;;;43.75;34.42;;;;;;;;;;5034676;28;20025;-64
2021/06/26 07:02:43;;;;;;;39.25;33.08;;;;;;;;;;5034482;28;20075;-64
2021/06/26 07:05:10;;;;;;;41.67;34.63;;;;;;;;;;5052176;28;20401;-64
2021/06/26 07:07:36;;;;;;;36.08;31.42;;;;;;;;;;5034677;28;20044;-64
2021/06/26 07:10:02;;;;;;;38.45;33.92;;;;;;;;;;5034627;28;20481;-63
2021/06/26 07:12:28;;;;;;;36.65;31.17;;;;;;;;;;5052373;28;20020;-63
2021/06/26 07:14:54;;;;;;;35.95;31.35;;;;;;;;;;5052003;28;20347;-64
2021/06/26 07:17:20;;;;;;;37.50;31.63;;;;;;;;;;5034436;28;20025;-64
2021/06/26 07:19:46;;;;;;;35.47;30.60;;;;;;;;;;5052401;28;20029;-64
2021/06/26 07:22:12;;;;;;;35.38;30.25;;;;;;;;;;5034489;28;20124;-64
2021/06/26 07:24:38;;;;;;;34.33;30.55;;;;;;;;;;5066191;28;20036;-63
2021/06/26 07:27:04;;;;;;;37.83;30.65;;;;;;;;;;5072203;28;20016;-64
2021/06/26 07:29:30;;;;;;;35.67;30.20;;;;;;;;;;5072179;28;20096;-64
2021/06/26 07:31:56;;;;;;;35.65;31.13;;;;;;;;;;5072237;28;20028;-65
2021/06/26 07:34:22;;;;;;;34.88;28.55;;;;;;;;;;5071830;28;20032;-63
2021/06/26 07:36:48;;;;;;;36.15;29.40;;;;;;;;;;5053234;28;20038;-62
2021/06/26 07:39:14;;;;;;;38.97;29.23;;;;;;;;;;5053812;28;20116;-61
2021/06/26 07:41:40;;;;;;;31.73;28.23;;;;;;;;;;5071905;28;20100;-62
2021/06/26 07:44:06;;;;;;;34.03;28.08;;;;;;;;;;5071759;28;20028;-62
2021/06/26 07:46:32;;;;;;;31.77;28.42;;;;;;;;;;5071032;28;20025;-62
2021/06/26 07:48:58;;;;;;;30.83;27.48;;;;;;;;;;5053845;28;20032;-63
2021/06/26 07:51:24;;;;;;;31.83;28.08;;;;;;;;;;5071646;28;20021;-63
2021/06/26 07:53:50;;;;;;;31.38;28.02;;;;;;;;;;5071641;28;20032;-63
2021/06/26 07:56:16;;;;;;;31.40;26.80;;;;;;;;;;5053323;28;20036;-62
2021/06/26 07:58:42;;;;;;;31.75;26.25;;;;;;;;;;5061125;28;20025;-62
2021/06/26 08:01:08;;;;;;;32.10;27.02;;;;;;;;;;5051554;28;20052;-62
2021/06/26 08:03:34;;;;;;;32.38;26.83;;;;;;;;;;5052715;28;20126;-63
2021/06/26 08:06:00;;;;;;;30.92;26.50;;;;;;;;;;5068149;28;20024;-64
2021/06/26 08:08:26;;;;;;;30.50;25.42;;;;;;;;;;5053734;28;20029;-63
2021/06/26 08:10:52;;;;;;;29.30;26.17;;;;;;;;;;5071529;28;20024;-64
2021/06/26 08:13:20;;;;;;;29.42;25.63;;;;;;;;;;5071559;28;20464;-63
2021/06/26 08:15:46;;;;;;;29.90;25.35;;;;;;;;;;5056149;28;20108;-64
2021/06/26 08:18:13;;;;;;;29.85;26.63;;;;;;;;;;5043852;28;20080;-64
2021/06/26 08:20:39;;;;;;;30.25;25.33;;;;;;;;;;5061099;28;20021;-63
2021/06/26 08:23:06;;;;;;;31.15;25.65;;;;;;;;;;5056824;28;20082;-63
2021/06/26 08:25:32;;;;;;;27.52;24.38;;;;;;;;;;5050730;28;20028;-63
2021/06/26 08:27:58;;;;;;;30.55;26.52;;;;;;;;;;5051511;28;20415;-64
2021/06/26 08:30:24;;;;;;;29.25;26.15;;;;;;;;;;5050936;28;20096;-64
2021/06/26 08:32:50;;;;;;;27.33;24.30;;;;;;;;;;5056153;28;20040;-64
2021/06/26 08:35:16;;;;;;;29.02;24.95;;;;;;;;;;5050765;28;20037;-64
2021/06/26 08:37:47;;;;;;;28.33;25.33;;;;;;;;;;5050557;28;20090;-64
2021/06/26 08:40:14;;;;;;;28.73;24.95;;;;;;;;;;5050716;28;20128;-64
2021/06/26 08:42:40;;;;;;;28.58;25.50;;;;;;;;;;5051045;28;20474;-64
2021/06/26 08:45:08;;;;;;;28.25;24.95;;;;;;;;;;5064126;28;20094;-63
2021/06/26 08:47:34;;;;;;;27.23;24.33;;;;;;;;;;5052874;28;20028;-64
2021/06/26 08:50:00;;;;;;;27.40;24.48;;;;;;;;;;5063803;28;20361;-64
2021/06/26 08:52:26;;;;;;;27.08;23.52;;;;;;;;;;5060719;28;20358;-64
2021/06/26 08:54:53;;;;;;;25.52;22.77;;;;;;;;;;5059300;28;20016;-64
2021/06/26 08:57:29;;;;;;;26.83;23.40;;;;;;;;;;5049603;28;20021;-64
2021/06/26 08:59:55;;;;;;;26.30;23.42;;;;;;;;;;5053823;28;20021;-64
2021/06/26 09:02:22;;;;;;;28.90;23.55;;;;;;;;;;5054249;28;20036;-63
2021/06/26 09:04:48;;;;;;;27.87;24.13;;;;;;;;;;5054184;28;20025;-64
2021/06/26 09:07:14;;;;;;;27.13;24.20;;;;;;;;;;5054649;28;20021;-64
2021/06/26 09:09:41;;;;;;;32.00;24.35;;;;;;;;;;5054833;28;20028;-63
2021/06/26 09:12:08;;;;;;;27.13;24.23;;;;;;;;;;5054360;28;20079;-63
2021/06/26 09:14:36;;;;;;;28.63;25.60;;;;;;;;;;5054206;28;20033;-64
2021/06/26 09:17:02;;;;;;;28.73;25.20;;;;;;;;;;5036602;28;20033;-64
2021/06/26 09:19:29;;;;;;;26.60;23.85;;;;;;;;;;5053871;28;20592;-63
2021/06/26 09:22:13;;;;;;;26.70;23.83;;;;;;;;;;5060308;28;20504;-63
2021/06/26 09:24:43;;;;;;;27.67;24.65;;;;;;;;;;5059994;28;20060;-64
2021/06/26 09:27:10;;;;;;;29.25;25.02;;;;;;;;;;5054089;28;20480;-64
2021/06/26 09:29:36;;;;;;;29.67;25.63;;;;;;;;;;5054436;28;20052;-64
2021/06/26 09:32:06;;;;;;;28.67;25.65;;;;;;;;;;5054240;28;20021;-64
2021/06/26 09:34:37;;;;;;;28.40;25.50;;;;;;;;;;5054284;28;20052;-64
2021/06/26 09:37:04;;;;;;;27.45;24.65;;;;;;;;;;5053758;28;20036;-64
2021/06/26 09:39:36;;;;;;;29.90;26.80;;;;;;;;;;5054116;28;20496;-64
2021/06/26 09:42:07;;;;;;;30.25;27.08;;;;;;;;;;5054206;28;20057;-64
2021/06/26 09:44:33;;;;;;;30.10;27.10;;;;;;;;;;5053985;28;20540;-64
2021/06/26 09:47:00;;;;;;;30.77;27.02;;;;;;;;;;5053529;28;20477;-64
2021/06/26 09:49:30;;;;;;;35.55;30.15;;;;;;;;;;5054010;28;20067;-64
2021/06/26 09:52:03;;;;;;;33.80;29.98;;;;;;;;;;5035790;28;20404;-63
2021/06/26 09:54:30;;;;;;;32.55;29.20;;;;;;;;;;5068670;28;20038;-64
2021/06/26 09:56:56;;;;;;;30.52;27.45;;;;;;;;;;5073087;28;20377;-64
2021/06/26 09:59:32;;;;;;;29.90;26.77;;;;;;;;;;5055724;28;20028;-64
2021/06/26 10:01:59;;;;;;;29.38;26.20;;;;;;;;;;5073513;28;20048;-64
2021/06/26 10:04:25;;;;;;;31.83;28.63;;;;;;;;;;5073361;28;20074;-63
2021/06/26 10:06:51;;;;;;;32.72;29.33;;;;;;;;;;5073579;28;20059;-63
2021/06/26 10:09:17;;;;;;;28.98;25.88;;;;;;;;;;5055404;28;20116;-63
2021/06/26 10:11:43;;;;;;;29.75;26.85;;;;;;;;;;5073489;28;20103;-64
2021/06/26 10:14:10;;;;;;;30.63;27.52;;;;;;;;;;5073401;28;20033;-62
2021/06/26 10:16:38;;;;;;;31.08;27.98;;;;;;;;;;5073398;28;20575;-64
2021/06/26 10:19:06;;;;;;;29.35;26.35;;;;;;;;;;5073497;28;20085;-63
2021/06/26 10:21:32;;;;;;;30.90;27.87;;;;;;;;;;5072368;28;20056;-64
2021/06/26 10:23:59;;;;;;;28.95;25.98;;;;;;;;;;5053066;28;20024;-64
2021/06/26 10:26:26;;;;;;;29.92;26.92;;;;;;;;;;5053113;28;20025;-63
2021/06/26 10:28:59;;;;;;;28.95;26.05;;;;;;;;;;5053346;28;20059;-63
2021/06/26 10:31:29;;;;;;;29.10;25.77;;;;;;;;;;5052924;28;20017;-64
2021/06/26 10:34:06;;;;;;;28.45;25.55;;;;;;;;;;5053132;28;20021;-64
2021/06/26 10:36:33;;;;;;;29.05;26.08;;;;;;;;;;5052824;28;20029;-64
2021/06/26 10:38:59;;;;;;;28.00;25.15;;;;;;;;;;5053237;28;20028;-63
2021/06/26 10:41:24;;;;;;;29.90;26.70;;;;;;;;;;5053130;28;20036;-64
2021/06/26 10:43:58;;;;;;;29.10;26.23;;;;;;;;;;5052957;28;20087;-64
2021/06/26 10:46:24;;;;;;;29.95;27.08;;;;;;;;;;5052710;28;20055;-64
2021/06/26 10:49:05;;;;;;;30.25;27.02;;;;;;;;;;5052931;28;20101;-63
2021/06/26 10:51:39;;;;;;;29.30;26.50;;;;;;;;;;5052751;28;20119;-64
2021/06/26 10:54:09;;;;;;;27.85;25.05;;;;;;;;;;5052653;28;20035;-64
2021/06/26 10:56:35;;;;;;;26.60;23.80;;;;;;;;;;5052614;28;20079;-63
2021/06/26 10:59:21;;;;;;;26.17;23.45;;;;;;;;;;5034951;28;20480;-64
2021/06/26 11:01:53;;;;;;;25.08;22.58;;;;;;;;;;5052524;28;20116;-63
2021/06/26 11:04:19;;;;;;;25.30;22.60;;;;;;;;;;5052443;28;20025;-63
2021/06/26 11:06:45;;;;;;;25.65;23.02;;;;;;;;;;5052325;28;20429;-63
2021/06/26 11:09:12;;;;;;;26.90;24.13;;;;;;;;;;5052373;28;20158;-63
2021/06/26 11:11:42;;;;;;;26.73;23.98;;;;;;;;;;5052299;28;20033;-63
2021/06/26 11:14:08;;;;;;;27.05;24.45;;;;;;;;;;5051832;28;20043;-61
2021/06/26 11:16:35;;;;;;;26.00;23.23;;;;;;;;;;5052247;28;20079;-64
2021/06/26 11:19:01;;;;;;;25.58;22.98;;;;;;;;;;5034058;28;20068;-63
2021/06/26 11:21:27;;;;;;;25.38;22.73;;;;;;;;;;5033408;28;20060;-64
2021/06/26 11:23:53;;;;;;;25.20;22.75;;;;;;;;;;5052197;28;20036;-64
2021/06/26 11:26:20;;;;;;;26.60;23.80;;;;;;;;;;5033862;28;20453;-63
2021/06/26 11:28:46;;;;;;;26.13;23.23;;;;;;;;;;5051650;28;20029;-62
2021/06/26 11:31:12;;;;;;;27.42;24.73;;;;;;;;;;5051891;28;20032;-63
2021/06/26 11:33:42;;;;;;;26.27;23.58;;;;;;;;;;5051864;28;20021;-63
2021/06/26 11:36:12;;;;;;;26.15;23.55;;;;;;;;;;5051703;28;20017;-64
2021/06/26 11:38:38;;;;;;;25.13;22.73;;;;;;;;;;4699392;28;10000435;-65
2021/06/26 11:41:06;;;;;;;26.25;23.67;;;;;;;;;;5031245;28;20432;-63
2021/06/26 11:43:32;;;;;;;25.97;23.23;;;;;;;;;;5031259;28;20044;-64
2021/06/26 11:46:00;;;;;;;26.05;23.38;;;;;;;;;;5030742;28;20028;-63
2021/06/26 11:48:26;;;;;;;25.42;22.80;;;;;;;;;;5048647;28;20060;-64
2021/06/26 11:50:53;;;;;;;26.75;23.90;;;;;;;;;;5048751;28;20090;-64
2021/06/26 11:53:24;;;;;;;25.92;23.42;;;;;;;;;;5030771;28;20510;-65
2021/06/26 11:56:01;;;;;;;27.88;25.17;;;;;;;;;;5030514;28;20386;-66
2021/06/26 11:58:46;;;;;;;28.00;25.42;;;;;;;;;;5048979;28;20036;-66
2021/06/26 12:01:26;;;;;;;27.48;24.77;;;;;;;;;;5048474;28;20028;-66
2021/06/26 12:03:52;;;;;;;26.60;23.92;;;;;;;;;;5048160;28;20449;-66
2021/06/26 12:06:18;;;;;;;26.02;23.60;;;26.80;87.90;;;;;;5048377;28;20048;-66
2021/06/26 12:08:55;;;;;;;26.17;23.55;;;38.10;72.10;;;;;;5048445;28;20029;-66
2021/06/26 12:11:22;;;;;;;25.88;23.23;;;;;;;;;;5030351;28;20090;-64
2021/06/26 12:13:49;;;;;;;25.58;23.15;;;;;;;;;;5030552;28;20041;-64
2021/06/26 12:16:26;;;;;;;26.10;23.55;;;36.90;67.00;;;;;;5050142;28;20339;-66
2021/06/26 12:19:04;;;;;;;26.63;24.02;;;;;;;;;;5051535;28;20056;-66
2021/06/26 12:21:51;;;;;;;26.20;23.63;;;;;;;;;;5033238;28;20052;-66
2021/06/26 12:24:26;;;;;;;25.27;22.90;;;;;;;;;;5050523;28;20021;-65
2021/06/26 12:27:05;;;;;;;25.23;22.83;;;;;;;;;;5050541;28;20028;-65
2021/06/26 12:29:31;;;;;;;26.08;23.50;;;;;;;;;;5051084;28;20017;-65
2021/06/26 12:31:57;;;;;;;24.65;22.27;;;;;;;;;;5032688;28;20036;-66
2021/06/26 12:34:23;;;;;;;26.42;23.85;;;;;;;;;;5032836;28;20028;-65
2021/06/26 12:39:35;;;;;;;25.80;23.17;;;;;;;;;;5048972;28;20071;-64
2021/06/26 12:42:02;;;;;;;24.38;22.08;;;;;;;;;;5050905;28;20122;-64
2021/06/26 12:44:28;;;;;;;24.42;22.02;;;;;;;;;;5050501;28;20029;-65
2021/06/26 12:46:54;;;;;;;25.40;22.90;;;;;;;;;;5032818;28;20066;-64
2021/06/26 12:49:26;;;;;;;24.23;21.85;;;;;;;;;;5051272;28;20075;-64
2021/06/26 12:51:52;;;;;;;23.67;21.35;;;;;;;;;;5051072;28;20080;-64
2021/06/26 12:54:19;;;;;;;23.98;21.58;;;;;;;;;;5051025;28;20112;-64
2021/06/26 12:56:47;;;;;;;24.80;22.30;;;;;;;;;;5033448;28;20443;-64
2021/06/26 12:59:14;;;;;;;23.92;21.55;;;;;;;;;;5051462;28;20029;-64
2021/06/26 13:01:41;;;;;;;25.02;22.50;;;;;;;;;;5051420;28;20025;-64
2021/06/26 13:04:09;;;;;;;24.08;21.77;;;;;;;;;;5033302;28;20032;-64
2021/06/26 13:06:55;;;;;;;23.85;21.55;;;;;;;;;;5032843;28;20025;-64
2021/06/26 13:09:34;;;;;;;23.10;20.77;;;;;;;;;;4683609;28;10000351;-64
2021/06/26 13:12:09;;;;;;;23.17;20.98;;;;;;;;;;5048277;28;20092;-64
2021/06/26 13:14:39;;;;;;;22.50;20.30;;;;;;;;;;5047994;28;20112;-63
2021/06/26 13:17:05;;;;;;;22.75;20.55;;;;;;;;;;5030183;28;20106;-67
2021/06/26 13:19:31;;;;;;;24.35;22.05;;;;;;;;;;5048209;28;20029;-64
2021/06/26 13:21:57;;;;;;;24.83;22.40;;;;;;;;;;5030124;28;20382;-63
2021/06/26 13:24:23;;;;;;;24.77;22.38;;;;;;;;;;5029271;28;20025;-64
2021/06/26 13:26:49;;;;;;;25.00;22.08;;;;;;;;;;5047703;28;20022;-66
2021/06/26 13:29:15;;;;;;;25.40;22.92;;;;;;;;;;5028893;28;20432;-66
2021/06/26 13:31:41;;;;;;;24.67;22.30;;;;;;;;;;5029561;28;20021;-66
2021/06/26 13:34:07;;;;;;;23.45;21.25;;;;;;;;;;5047752;28;20358;-66
2021/06/26 13:36:33;;;;;;;24.83;22.42;;;;;;;;;;5029681;28;20103;-66
2021/06/26 13:39:00;;;;;;;24.88;22.52;;;;;;;;;;5029514;28;20409;-66
2021/06/26 13:41:26;;;;;;;23.98;21.58;;;;;;;;;;5047412;28;20685;-66
2021/06/26 13:43:52;;;;;;;23.45;21.20;;;;;;;;;;5048006;28;20029;-65
2021/06/26 13:46:18;;;;;;;23.92;21.63;;;;;;;;;;5035719;28;20040;-66
2021/06/26 13:48:44;;;;;;;24.98;22.63;;;;;;;;;;5036103;28;20017;-66
2021/06/26 13:51:10;;;;;;;24.10;21.73;;;;;;;;;;5053797;28;20032;-66
2021/06/26 13:53:36;;;;;;;24.25;21.88;;;;;;;;;;5053554;28;20017;-66
2021/06/26 13:56:02;;;;;;;24.08;21.65;;;;;;;;;;5053030;28;20035;-65
2021/06/26 13:58:28;;;;;;;23.67;21.13;;;;;;;;;;5035667;28;20017;-66
2021/06/26 14:00:54;;;;;;;23.98;21.55;;;;;;;;;;5053675;28;20439;-65
2021/06/26 14:03:20;;;;;;;24.52;22.08;;;;;;;;;;5036218;28;20024;-65
2021/06/26 14:05:47;;;;;;;24.13;21.77;;;;;;;;;;5053360;28;20025;-65
2021/06/26 14:08:13;;;;;;;23.95;21.65;;;;;;;;;;5053815;28;20049;-65
2021/06/26 14:10:39;;;;;;;23.20;20.90;;;;;;;;;;5054166;28;20020;-65
2021/06/26 14:13:06;;;;;;;23.65;21.35;;;;;;;;;;5036160;28;20540;-65
2021/06/26 14:15:32;;;;;;;24.88;22.38;;;;;;;;;;5035863;28;20021;-66
2021/06/26 14:17:58;;;;;;;24.90;22.52;;;;;;;;;;5053900;28;20104;-65